createdAt,value
2019-04-14T00:00:25.131Z,98194.76
2019-04-14T00:03:04.503Z,98195.53
2019-04-14T00:05:36.988Z,98200.30
2019-04-14T00:08:09.036Z,98202.54
2019-04-14T00:10:42.122Z,98206.77
2019-04-14T00:13:15.245Z,98209.67
2019-04-14T00:15:50.432Z,98203.19
2019-04-14T00:18:21.265Z,98205.61
2019-04-14T00:20:53.490Z,98202.59
2019-04-14T00:23:26.132Z,98195.88
2019-04-14T00:26:22.832Z,98198.15
2019-04-14T00:28:55.589Z,98192.41
2019-04-14T00:31:28.578Z,98186.59
2019-04-14T00:34:07.264Z,98185.17
2019-04-14T00:36:50.227Z,98188.15
2019-04-14T00:39:29.436Z,98194.40
2019-04-14T00:42:08.624Z,98191.64
2019-04-14T00:44:49.704Z,98186.36
2019-04-14T00:47:28.903Z,98190.61
2019-04-14T00:50:01.645Z,98184.75
2019-04-14T00:52:34.105Z,98189.42
2019-04-14T00:55:06.163Z,98184.48
2019-04-14T00:57:39.754Z,98191.34
2019-04-14T01:00:12.783Z,98197.16
2019-04-14T01:02:47.124Z,98191.34
2019-04-14T01:05:19.552Z,98190.38
2019-04-14T01:07:52.335Z,98190.12
2019-04-14T01:10:25.610Z,98184.59
2019-04-14T01:12:58.157Z,98177.75
2019-04-14T01:15:31.069Z,98174.95
2019-04-14T01:18:04.024Z,98171.13
2019-04-14T01:20:36.375Z,98170.92
2019-04-14T01:23:08.523Z,98164.61
2019-04-14T01:25:41.046Z,98169.55
2019-04-14T01:28:13.717Z,98164.41
2019-04-14T01:30:45.929Z,98165.28
2019-04-14T01:33:18.295Z,98163.25
2019-04-14T01:35:51.015Z,98163.64
2019-04-14T01:38:23.344Z,98165.14
2019-04-14T01:40:55.396Z,98174.78
2019-04-14T01:43:27.792Z,98176.81
2019-04-14T01:46:09.589Z,98177.20
2019-04-14T01:48:34.605Z,98177.84
2019-04-14T01:51:44.459Z,98180.08
2019-04-14T01:54:40.988Z,98177.74
2019-04-14T01:57:44.239Z,98182.53
2019-04-14T02:00:38.580Z,98186.55
2019-04-14T02:03:10.724Z,98176.59
2019-04-14T02:05:43.181Z,98181.16
2019-04-14T02:08:15.526Z,98187.59
2019-04-14T02:10:47.907Z,98182.03
2019-04-14T02:13:20.345Z,98176.25
2019-04-14T02:15:52.880Z,98182.00
2019-04-14T02:18:25.184Z,98175.98
2019-04-14T02:20:57.884Z,98181.07
2019-04-14T02:23:30.202Z,98183.90
2019-04-14T02:26:02.361Z,98182.37
2019-04-14T02:28:35.358Z,98182.37
2019-04-14T02:31:17.701Z,98186.70
2019-04-14T02:34:09.541Z,98183.98
2019-04-14T02:41:57.028Z,98182.94
2019-04-14T02:46:53.414Z,98183.96
2019-04-14T02:52:04.758Z,98188.02
2019-04-14T02:54:44.980Z,98191.45
2019-04-14T02:57:16.933Z,98192.34
2019-04-14T03:07:28.637Z,98185.72
2019-04-14T03:09:56.249Z,98185.63
2019-04-14T03:15:07.050Z,98189.58
2019-04-14T03:18:26.370Z,98190.20
2019-04-14T03:21:03.957Z,98182.93
2019-04-14T03:23:57.887Z,98183.28
2019-04-14T03:26:41.928Z,98183.91
2019-04-14T03:29:20.999Z,98179.14
2019-04-14T03:37:31.027Z,98181.91
2019-04-14T03:42:17.151Z,98184.81
2019-04-14T03:44:41.413Z,98177.58
2019-04-14T03:49:45.101Z,98176.05
2019-04-14T03:52:27.114Z,98182.10
2019-04-14T03:54:50.129Z,98182.87
2019-04-14T03:57:06.104Z,98182.37
2019-04-14T03:59:39.222Z,98183.55
2019-04-14T04:02:11.824Z,98182.78
2019-04-14T04:04:44.515Z,98186.72
2019-04-14T04:07:17.058Z,98190.02
2019-04-14T04:09:54.238Z,98187.48
2019-04-14T04:12:27.174Z,98189.28
2019-04-14T04:14:59.728Z,98187.52
2019-04-14T04:17:45.163Z,98190.05
2019-04-14T04:20:43.452Z,98186.78
2019-04-14T04:23:35.640Z,98195.13
2019-04-14T04:26:30.508Z,98198.28
2019-04-14T04:29:28.799Z,98202.22
2019-04-14T04:32:20.836Z,98200.45
2019-04-14T04:35:11.101Z,98203.42
2019-04-14T04:37:52.687Z,98203.88
2019-04-14T04:40:27.205Z,98202.72
2019-04-14T04:42:59.213Z,98206.34
2019-04-14T04:45:32.013Z,98210.02
2019-04-14T04:48:04.580Z,98213.31
2019-04-14T04:50:36.913Z,98209.75
2019-04-14T04:53:09.150Z,98209.75
2019-04-14T04:55:41.662Z,98214.16
2019-04-14T04:58:13.754Z,98212.05
2019-04-14T05:00:47.374Z,98212.96
2019-04-14T05:03:19.638Z,98213.61
2019-04-14T05:07:07.849Z,98209.05
2019-04-14T05:10:00.197Z,98208.40
2019-04-14T05:12:52.242Z,98211.81
2019-04-14T05:15:44.614Z,98212.63
2019-04-14T05:18:22.202Z,98223.75
2019-04-14T05:20:55.358Z,98225.16
2019-04-14T05:23:27.859Z,98232.52
2019-04-14T05:26:00.560Z,98234.61
2019-04-14T05:28:33.179Z,98239.44
2019-04-14T05:31:05.518Z,98239.05
2019-04-14T05:33:38.285Z,98236.29
2019-04-14T05:36:10.754Z,98238.05
2019-04-14T05:38:42.894Z,98234.26
2019-04-14T05:41:15.843Z,98241.11
2019-04-14T05:43:53.918Z,98236.81
2019-04-14T05:46:23.086Z,98242.31
2019-04-14T05:48:55.766Z,98245.48
2019-04-14T05:51:28.394Z,98249.45
2019-04-14T05:54:01.130Z,98243.27
2019-04-14T05:56:35.084Z,98247.27
2019-04-14T05:59:07.041Z,98252.45
2019-04-14T06:01:39.296Z,98251.59
2019-04-14T06:04:11.462Z,98259.48
2019-04-14T06:06:43.395Z,98253.65
2019-04-14T06:09:15.377Z,98258.86
2019-04-14T06:11:47.366Z,98254.17
2019-04-14T06:14:19.305Z,98254.41
2019-04-14T06:16:51.278Z,98263.78
2019-04-14T06:19:23.254Z,98259.70
2019-04-14T06:21:55.237Z,98258.33
2019-04-14T06:24:27.208Z,98261.75
2019-04-14T06:26:59.247Z,98257.80
2019-04-14T06:29:31.227Z,98268.09
2019-04-14T06:32:21.682Z,98259.95
2019-04-14T06:35:20.608Z,98253.11
2019-04-14T06:38:13.929Z,98256.53
2019-04-14T06:40:54.317Z,98259.06
2019-04-14T06:43:26.331Z,98261.49
2019-04-14T06:45:58.300Z,98263.75
2019-04-14T06:48:30.296Z,98262.13
2019-04-14T06:51:02.320Z,98259.94
2019-04-14T06:53:34.315Z,98261.11
2019-04-14T06:56:06.307Z,98260.48
2019-04-14T06:58:38.277Z,98258.97
2019-04-14T07:01:10.275Z,98254.66
2019-04-14T07:03:42.278Z,98259.94
2019-04-14T07:06:14.254Z,98259.20
2019-04-14T07:08:46.268Z,98257.09
2019-04-14T07:11:18.229Z,98258.10
2019-04-14T07:13:50.194Z,98255.85
2019-04-14T07:16:22.157Z,98260.93
2019-04-14T07:18:54.151Z,98258.33
2019-04-14T07:21:26.133Z,98261.36
2019-04-14T07:23:58.160Z,98257.45
2019-04-14T07:26:30.174Z,98261.77
2019-04-14T07:29:02.205Z,98256.47
2019-04-14T07:31:57.742Z,98254.45
2019-04-14T07:34:40.186Z,98264.17
2019-04-14T07:37:47.155Z,98260.98
2019-04-14T07:40:38.771Z,98259.91
2019-04-14T07:43:45.668Z,98261.18
2019-04-14T07:46:31.116Z,98259.75
2019-04-14T07:49:16.298Z,98264.91
2019-04-14T07:52:07.884Z,98261.48
2019-04-14T07:55:03.528Z,98257.16
2019-04-14T07:57:53.851Z,98261.23
2019-04-14T08:00:35.225Z,98256.36
2019-04-14T08:03:14.955Z,98256.06
2019-04-14T08:05:46.954Z,98248.33
2019-04-14T08:08:18.968Z,98253.02
2019-04-14T08:10:50.940Z,98254.28
2019-04-14T08:13:22.991Z,98262.38
2019-04-14T08:15:54.956Z,98251.45
2019-04-14T08:18:26.965Z,98262.56
2019-04-14T08:20:58.955Z,98256.89
2019-04-14T08:23:30.909Z,98254.70
2019-04-14T08:26:02.939Z,98246.83
2019-04-14T08:28:34.951Z,98250.50
2019-04-14T08:31:06.938Z,98261.47
2019-04-14T08:33:38.923Z,98246.50
2019-04-14T08:36:10.910Z,98239.92
2019-04-14T08:38:42.928Z,98253.11
2019-04-14T08:41:14.967Z,98251.19
2019-04-14T08:43:59.330Z,98245.99
2019-04-14T08:46:41.762Z,98249.52
2019-04-14T08:49:36.339Z,98250.08
2019-04-14T08:52:46.120Z,98242.98
2019-04-14T08:55:22.256Z,98243.25
2019-04-14T08:58:16.641Z,98244.04
2019-04-14T09:01:09.006Z,98248.19
2019-04-14T09:04:18.984Z,98246.39
2019-04-14T09:07:08.734Z,98242.97
2019-04-14T09:09:46.804Z,98237.62
2019-04-14T09:12:22.811Z,98233.16
2019-04-14T09:14:57.274Z,98237.25
2019-04-14T09:17:30.190Z,98241.42
2019-04-14T09:20:02.187Z,98236.98
2019-04-14T09:22:34.254Z,98233.19
2019-04-14T09:25:06.245Z,98236.74
2019-04-14T09:27:38.245Z,98230.59
2019-04-14T09:30:10.262Z,98230.09
2019-04-14T09:32:42.264Z,98233.78
2019-04-14T09:35:14.255Z,98231.06
2019-04-14T09:37:46.282Z,98221.48
2019-04-14T09:40:18.279Z,98225.48
2019-04-14T09:42:50.268Z,98228.03
2019-04-14T09:45:22.301Z,98228.74
2019-04-14T09:47:54.366Z,98230.53
2019-04-14T09:50:26.320Z,98234.32
2019-04-14T09:52:58.355Z,98224.55
2019-04-14T09:55:30.437Z,98224.08
2019-04-14T09:58:02.499Z,98224.91
2019-04-14T10:00:35.705Z,98224.27
2019-04-14T10:03:08.231Z,98218.63
2019-04-14T10:05:40.276Z,98215.59
2019-04-14T10:08:12.313Z,98213.81
2019-04-14T10:10:44.363Z,98220.77
2019-04-14T10:13:16.453Z,98221.86
2019-04-14T10:15:48.446Z,98219.98
2019-04-14T10:18:20.493Z,98225.14
2019-04-14T10:20:52.475Z,98213.12
2019-04-14T10:23:24.478Z,98210.63
2019-04-14T10:25:56.488Z,98195.56
2019-04-14T10:28:28.492Z,98204.39
2019-04-14T10:31:00.491Z,98199.63
2019-04-14T10:33:32.490Z,98202.50
2019-04-14T10:36:04.450Z,98207.16
2019-04-14T10:38:36.446Z,98204.92
2019-04-14T10:41:08.501Z,98210.73
2019-04-14T10:43:40.631Z,98215.29
2019-04-14T10:46:12.644Z,98214.11
2019-04-14T10:48:44.713Z,98214.02
2019-04-14T10:51:29.212Z,98228.92
2019-04-14T10:53:50.648Z,98215.69
2019-04-14T10:56:22.696Z,98227.30
2019-04-14T10:58:54.771Z,98214.78
2019-04-14T11:01:26.754Z,98217.85
2019-04-14T11:03:58.791Z,98211.05
2019-04-14T11:06:53.162Z,98219.66
2019-04-14T11:09:25.199Z,98219.13
2019-04-14T11:11:57.196Z,98222.00
2019-04-14T11:14:29.193Z,98227.41
2019-04-14T11:17:01.177Z,98221.80
2019-04-14T11:19:33.186Z,98224.65
2019-04-14T11:22:07.078Z,98221.20
2019-04-14T11:24:39.153Z,98218.58
2019-04-14T11:27:14.354Z,98216.32
2019-04-14T11:29:46.375Z,98219.23
2019-04-14T11:32:47.269Z,98215.83
2019-04-14T11:35:47.644Z,98211.48
2019-04-14T11:38:23.809Z,98220.22
2019-04-14T11:40:57.968Z,98210.22
2019-04-14T11:43:29.953Z,98214.64
2019-04-14T11:46:03.912Z,98219.81
2019-04-14T11:48:35.853Z,98217.09
2019-04-14T11:51:07.881Z,98220.33
2019-04-14T11:53:41.181Z,98215.08
2019-04-14T11:56:13.218Z,98216.13
2019-04-14T11:58:45.242Z,98216.42
2019-04-14T12:01:48.974Z,98222.29
2019-04-14T12:04:52.607Z,98215.92
2019-04-14T12:07:46.982Z,98221.78
2019-04-14T12:10:23.432Z,98228.43
2019-04-14T12:12:55.424Z,98221.84
2019-04-14T12:15:27.469Z,98216.84
2019-04-14T12:17:59.620Z,98233.06
2019-04-14T12:20:31.611Z,98225.20
2019-04-14T12:23:03.652Z,98231.02
2019-04-14T12:25:35.639Z,98233.69
2019-04-14T12:28:07.668Z,98226.48
2019-04-14T12:30:39.975Z,98246.76
2019-04-14T12:33:11.983Z,98238.02
2019-04-14T12:35:43.957Z,98226.15
2019-04-14T12:38:17.745Z,98236.03
2019-04-14T12:40:50.235Z,98235.86
2019-04-14T12:43:28.878Z,98236.48
2019-04-14T12:46:13.199Z,98234.17
2019-04-14T12:48:52.978Z,98235.12
2019-04-14T12:51:28.809Z,98237.11
2019-04-14T12:54:00.844Z,98234.28
2019-04-14T12:56:32.823Z,98237.78
2019-04-14T12:59:24.420Z,98232.52
2019-04-14T13:02:15.999Z,98229.59
2019-04-14T13:04:48.121Z,98231.02
2019-04-14T13:07:20.082Z,98233.66
2019-04-14T13:09:52.109Z,98232.63
2019-04-14T13:12:24.135Z,98236.19
2019-04-14T13:14:56.151Z,98233.86
2019-04-14T13:17:28.278Z,98236.47
2019-04-14T13:20:00.363Z,98229.98
2019-04-14T13:22:34.075Z,98242.05
2019-04-14T13:25:06.275Z,98247.93
2019-04-14T13:27:38.248Z,98237.45
2019-04-14T13:30:12.137Z,98236.31
2019-04-14T13:32:44.118Z,98232.48
2019-04-14T13:35:18.572Z,98247.55
2019-04-14T13:37:50.557Z,98236.42
2019-04-14T13:40:22.613Z,98244.78
2019-04-14T13:42:54.659Z,98241.33
2019-04-14T13:45:26.978Z,98247.70
2019-04-14T13:47:59.853Z,98245.91
2019-04-14T13:50:31.886Z,98238.90
2019-04-14T13:53:03.843Z,98246.25
2019-04-14T13:55:35.838Z,98247.70
2019-04-14T13:58:10.379Z,98243.83
2019-04-14T14:00:42.394Z,98253.03
2019-04-14T14:03:16.214Z,98256.00
2019-04-14T14:05:48.244Z,98251.89
2019-04-14T14:08:20.284Z,98243.08
2019-04-14T14:10:56.380Z,98254.72
2019-04-14T14:13:36.738Z,98247.91
2019-04-14T14:16:24.936Z,98243.19
2019-04-14T14:19:01.026Z,98240.79
2019-04-14T14:21:39.906Z,98244.86
2019-04-14T14:24:25.878Z,98250.23
2019-04-14T14:26:58.253Z,98252.11
2019-04-14T14:29:30.248Z,98250.00
2019-04-14T14:32:04.330Z,98255.52
2019-04-14T14:34:36.307Z,98249.95
2019-04-14T14:37:08.344Z,98256.23
2019-04-14T14:39:40.364Z,98256.05
2019-04-14T14:42:12.398Z,98247.95
2019-04-14T14:44:49.731Z,98257.00
2019-04-14T14:47:27.506Z,98257.18
2019-04-14T14:50:11.666Z,98257.00
2019-04-14T14:52:43.714Z,98259.67
2019-04-14T14:55:15.738Z,98261.17
2019-04-14T14:57:47.787Z,98262.94
2019-04-14T15:00:35.082Z,98276.70
2019-04-14T15:03:07.217Z,98272.30
2019-04-14T15:05:39.246Z,98274.87
2019-04-14T15:08:11.309Z,98281.05
2019-04-14T15:10:43.368Z,98287.19
2019-04-14T15:13:15.393Z,98286.94
2019-04-14T15:15:47.431Z,98286.94
2019-04-14T15:18:19.467Z,98293.92
2019-04-14T15:20:51.501Z,98287.48
2019-04-14T15:23:25.275Z,98288.66
2019-04-14T15:25:59.795Z,98283.28
2019-04-14T15:28:31.922Z,98291.14
2019-04-14T15:31:03.926Z,98299.27
2019-04-14T15:33:35.984Z,98299.27
2019-04-14T15:36:08.016Z,98296.47
2019-04-14T15:38:41.609Z,98296.47
2019-04-14T15:41:13.602Z,98302.76
2019-04-14T15:43:48.149Z,98311.46
2019-04-14T15:46:20.130Z,98315.41
2019-04-14T15:48:52.153Z,98315.41
2019-04-14T15:51:24.144Z,98317.00
2019-04-14T15:53:56.114Z,98319.84
2019-04-14T15:56:50.492Z,98335.08
2019-04-14T15:59:51.224Z,98330.08
2019-04-14T16:02:45.634Z,98328.89
2019-04-14T16:05:29.052Z,98332.23
2019-04-14T16:08:06.215Z,98337.38
2019-04-14T16:10:46.615Z,98339.80
2019-04-14T16:13:26.001Z,98335.81
2019-04-14T16:16:11.230Z,98342.84
2019-04-14T16:18:56.528Z,98346.39
2019-04-14T16:21:28.587Z,98345.27
2019-04-14T16:24:00.643Z,98349.89
2019-04-14T16:26:52.253Z,98348.94
2019-04-14T16:29:35.356Z,98350.98
2019-04-14T16:32:45.421Z,98359.38
2019-04-14T16:35:20.736Z,98364.20
2019-04-14T16:37:52.733Z,98365.53
2019-04-14T16:40:24.894Z,98368.52
2019-04-14T16:42:56.943Z,98373.62
2019-04-14T16:45:29.014Z,98372.41
2019-04-14T16:48:01.059Z,98377.55
2019-04-14T16:50:33.136Z,98373.34
2019-04-14T16:53:15.861Z,98383.46
2019-04-14T16:56:03.770Z,98387.39
2019-04-14T16:58:40.888Z,98388.83
2019-04-14T17:01:20.793Z,98394.32
2019-04-14T17:03:52.825Z,98396.49
2019-04-14T17:06:24.908Z,98406.56
2019-04-14T17:08:56.906Z,98406.53
2019-04-14T17:11:28.937Z,98413.12
2019-04-14T17:14:07.095Z,98425.25
2019-04-14T17:17:13.897Z,98418.83
2019-04-14T17:20:13.514Z,98419.58
2019-04-14T17:23:07.892Z,98427.58
2019-04-14T17:26:14.962Z,98437.03
2019-04-14T17:29:09.479Z,98437.11
2019-04-14T17:32:06.583Z,98439.48
2019-04-14T17:34:49.761Z,98441.55
2019-04-14T17:37:40.239Z,98448.30
2019-04-14T17:40:33.037Z,98448.98
2019-04-14T17:43:14.368Z,98455.98
2019-04-14T17:46:08.778Z,98462.84
2019-04-14T17:49:06.464Z,98465.12
2019-04-14T17:51:46.939Z,98466.77
2019-04-14T17:54:53.880Z,98472.97
2019-04-14T17:57:44.297Z,98476.58
2019-04-14T18:00:20.417Z,98484.48
2019-04-14T18:03:12.061Z,98494.05
2019-04-14T18:05:50.572Z,98491.63
2019-04-14T18:08:43.834Z,98502.59
2019-04-14T18:11:41.272Z,98504.31
2019-04-14T18:14:23.691Z,98508.16
2019-04-14T18:17:10.044Z,98512.11
2019-04-14T18:20:07.651Z,98518.38
2019-04-14T18:22:39.656Z,98519.29
2019-04-14T18:25:11.634Z,98522.60
2019-04-14T18:28:12.304Z,98523.92
2019-04-14T18:30:50.588Z,98525.08
2019-04-14T18:33:38.292Z,98526.27
2019-04-14T18:36:17.528Z,98535.08
2019-04-14T18:39:08.010Z,98532.29
2019-04-14T18:41:49.200Z,98539.53
2019-04-14T18:44:30.892Z,98552.12
2019-04-14T18:47:19.802Z,98548.84
2019-04-14T18:50:00.391Z,98558.38
2019-04-14T18:53:07.201Z,98563.47
2019-04-14T18:56:10.906Z,98564.89
2019-04-14T18:59:02.843Z,98563.86
2019-04-14T19:01:37.854Z,98561.47
2019-04-14T19:04:10.181Z,98569.88
2019-04-14T19:06:42.528Z,98572.41
2019-04-14T19:09:14.624Z,98577.14
2019-04-14T19:12:06.217Z,98589.58
2019-04-14T19:14:39.347Z,98589.46
2019-04-14T19:17:35.919Z,98588.44
2019-04-14T19:20:08.212Z,98589.60
2019-04-14T19:22:40.343Z,98592.52
2019-04-14T19:25:12.432Z,98603.56
2019-04-14T19:27:47.429Z,98599.13
2019-04-14T19:30:19.559Z,98604.48
2019-04-14T19:32:51.556Z,98601.92
2019-04-14T19:35:23.636Z,98605.34
2019-04-14T19:37:55.633Z,98616.91
2019-04-14T19:40:27.697Z,98616.66
2019-04-14T19:42:59.813Z,98618.30
2019-04-14T19:45:31.849Z,98614.34
2019-04-14T19:48:03.883Z,98614.09
2019-04-14T19:50:36.027Z,98618.78
2019-04-14T19:53:08.048Z,98621.06
2019-04-14T19:55:40.179Z,98619.13
2019-04-14T19:58:12.218Z,98627.09
2019-04-14T20:00:44.300Z,98628.25
2019-04-14T20:03:16.344Z,98627.96
2019-04-14T20:05:48.446Z,98632.28
2019-04-14T20:08:20.452Z,98633.16
2019-04-14T20:10:52.559Z,98637.80
2019-04-14T20:13:25.878Z,98641.23
2019-04-14T20:16:17.555Z,98644.27
2019-04-14T20:19:24.587Z,98643.12
2019-04-14T20:22:14.717Z,98649.05
2019-04-14T20:25:09.358Z,98644.80
2019-04-14T20:28:01.601Z,98644.19
2019-04-14T20:30:38.028Z,98643.30
2019-04-14T20:33:10.162Z,98646.45
2019-04-14T20:35:42.144Z,98644.42
2019-04-14T20:38:14.189Z,98646.80
2019-04-14T20:40:46.239Z,98652.72
2019-04-14T20:43:18.334Z,98649.03
2019-04-14T20:45:50.308Z,98643.95
2019-04-14T20:48:22.321Z,98649.59
2019-04-14T20:50:54.295Z,98649.83
2019-04-14T20:53:26.316Z,98655.39
2019-04-14T20:55:58.297Z,98658.85
2019-04-14T20:58:30.330Z,98654.34
2019-04-14T21:01:04.268Z,98662.41
2019-04-14T21:03:43.618Z,98667.25
2019-04-14T21:06:35.219Z,98671.55
2019-04-14T21:09:17.531Z,98675.07
2019-04-14T21:12:07.800Z,98685.94
2019-04-14T21:14:57.348Z,98684.39
2019-04-14T21:17:37.376Z,98688.13
2019-04-14T21:20:19.299Z,98689.12
2019-04-14T21:23:09.278Z,98691.11
2019-04-14T21:26:04.618Z,98697.09
2019-04-14T21:28:45.877Z,98696.61
2019-04-14T21:31:37.452Z,98687.41
2019-04-14T21:34:28.446Z,98700.11
2019-04-14T21:37:38.141Z,98693.94
2019-04-14T21:40:29.774Z,98694.34
2019-04-14T21:43:01.806Z,98694.73
2019-04-14T21:45:33.853Z,98700.11
2019-04-14T21:48:05.899Z,98699.00
2019-04-14T21:50:37.910Z,98706.06
2019-04-14T21:53:09.901Z,98700.91
2019-04-14T21:55:41.898Z,98709.83
2019-04-14T21:58:22.413Z,98701.50
2019-04-14T22:01:51.435Z,98708.79
2019-04-14T22:04:35.941Z,98715.18
2019-04-14T22:07:26.148Z,98715.66
2019-04-14T22:10:13.671Z,98717.16
2019-04-14T22:12:46.517Z,98720.75
2019-04-14T22:15:18.498Z,98726.64
2019-04-14T22:17:50.478Z,98725.47
2019-04-14T22:20:22.553Z,98733.38
2019-04-14T22:22:54.519Z,98737.97
2019-04-14T22:25:26.646Z,98738.95
2019-04-14T22:27:58.657Z,98738.41
2019-04-14T22:30:30.684Z,98741.19
2019-04-14T22:33:05.693Z,98740.77
2019-04-14T22:35:37.694Z,98734.66
2019-04-14T22:38:09.645Z,98740.50
2019-04-14T22:40:41.638Z,98742.16
2019-04-14T22:43:13.773Z,98741.88
2019-04-14T22:45:45.760Z,98742.30
2019-04-14T22:48:20.042Z,98739.39
2019-04-14T22:50:52.201Z,98735.38
2019-04-14T22:53:24.109Z,98734.62
2019-04-14T22:55:56.146Z,98734.58
2019-04-14T22:58:28.145Z,98736.05
2019-04-14T23:01:05.107Z,98731.09
2019-04-14T23:04:01.723Z,98734.22
2019-04-14T23:06:56.060Z,98742.47
2019-04-14T23:09:33.149Z,98733.16
2019-04-14T23:12:22.400Z,98736.36
2019-04-14T23:15:32.518Z,98736.12
2019-04-14T23:18:13.012Z,98739.86
2019-04-14T23:21:10.604Z,98748.92
2019-04-14T23:24:02.083Z,98751.89
2019-04-14T23:26:34.064Z,98750.30
2019-04-14T23:29:06.019Z,98753.20
2019-04-14T23:31:37.976Z,98750.55
2019-04-14T23:34:09.980Z,98748.98
2019-04-14T23:36:43.170Z,98743.94
2019-04-14T23:39:15.138Z,98738.30
2019-04-14T23:41:49.373Z,98735.52
2019-04-14T23:44:21.313Z,98732.11
2019-04-14T23:46:53.294Z,98733.97
2019-04-14T23:49:25.327Z,98728.19
2019-04-14T23:51:57.286Z,98736.78
2019-04-14T23:54:29.236Z,98734.55
2019-04-14T23:57:05.866Z,98730.84
2019-04-14T23:59:37.815Z,98730.41
